Time;durP1;ratioP1;P1;durP2;ratioP2;P2;SDS_P1;SDS_P2;PMS_P1;PMS_P2;Temp;Humidity;BMP_temperature;BMP_pressure;BME280_temperature;BME280_humidity;BME280_pressure;Samples;Min_cycle;Max_cycle;Signal;HPM_P1;HPM_P2
2023/05/11 00:00:39;;;;;;;5.47;4.60;;;11.10;99.90;;;11.10;65.32;95145.59;5030114;28;21101;-60
2023/05/11 00:03:06;;;;;;;5.23;4.93;;;11.10;99.90;;;11.09;65.35;95141.31;5035077;28;20476;-66
2023/05/11 00:05:33;;;;;;;6.97;4.90;;;11.10;99.90;;;11.08;65.25;95139.66;5035415;28;20551;-58
2023/05/11 00:08:01;;;;;;;9.80;4.70;;;11.10;99.90;;;11.09;65.18;95151.00;5033842;28;20485;-58
2023/05/11 00:10:29;;;;;;;4.43;4.03;;;11.10;99.90;;;11.08;65.18;95150.16;5025804;28;20543;-64
2023/05/11 00:12:58;;;;;;;9.70;5.17;;;11.10;99.90;;;11.08;65.15;95160.69;5042863;28;20444;-59
2023/05/11 00:15:26;;;;;;;5.87;5.07;;;11.10;99.90;;;11.08;65.17;95149.34;5043476;28;20965;-58
2023/05/11 00:17:55;;;;;;;5.63;4.33;;;11.10;99.90;;;11.07;65.10;95151.13;5030975;28;20499;-57
2023/05/11 00:20:23;;;;;;;7.70;4.10;;;11.10;99.90;;;11.06;65.16;95161.78;5033478;28;20565;-56
2023/05/11 00:22:50;;;;;;;5.23;4.47;;;11.10;99.90;;;11.04;65.05;95155.84;5038765;28;20469;-59
2023/05/11 00:25:17;;;;;;;19.60;4.20;;;11.10;99.90;;;11.01;64.56;95153.47;5036751;28;20953;-64
2023/05/11 00:27:45;;;;;;;5.07;4.67;;;11.00;99.90;;;10.97;64.66;95168.72;5039624;28;20472;-65
2023/05/11 00:30:14;;;;;;;4.50;4.17;;;11.00;99.90;;;10.92;64.84;95155.97;5039181;28;20470;-65
2023/05/11 00:32:41;;;;;;;4.37;4.07;;;11.00;99.90;;;10.88;64.92;95154.56;5037445;28;20547;-59
2023/05/11 00:35:10;;;;;;;6.00;4.53;;;10.90;99.90;;;10.87;65.04;95159.97;5040189;28;20456;-64
2023/05/11 00:37:38;;;;;;;5.17;4.77;;;10.90;99.90;;;10.84;64.93;95158.41;5041657;28;20533;-59
2023/05/11 00:40:06;;;;;;;5.53;4.17;;;10.90;99.90;;;10.81;64.97;95152.59;5040019;28;20465;-62
2023/05/11 00:42:34;;;;;;;7.10;4.80;;;10.80;99.90;;;10.79;64.82;95154.53;5035189;28;20484;-59
2023/05/11 00:45:01;;;;;;;11.73;4.07;;;10.80;99.90;;;10.76;64.69;95150.38;5036791;28;20452;-58
2023/05/11 00:47:28;;;;;;;4.90;4.60;;;10.80;99.90;;;10.75;64.82;95161.84;5038689;28;21024;-62
2023/05/11 00:49:56;;;;;;;4.70;4.27;;;10.80;99.90;;;10.73;64.83;95162.00;5039555;28;20810;-64
2023/05/11 00:52:24;;;;;;;5.60;3.63;;;10.70;99.90;;;10.71;64.66;95165.72;5036446;28;20507;-65
2023/05/11 00:54:51;;;;;;;6.73;4.83;;;10.70;99.90;;;10.69;64.76;95159.75;5039355;28;20559;-57
2023/05/11 00:57:20;;;;;;;3.73;3.50;;;10.70;99.90;;;10.67;64.70;95159.88;5039623;28;20465;-59
2023/05/11 00:59:47;;;;;;;4.57;4.10;;;10.70;99.90;;;10.61;64.80;95163.06;5036250;28;20496;-59
2023/05/11 01:02:15;;;;;;;4.00;3.70;;;10.70;99.90;;;10.63;64.80;95155.03;5038859;28;20934;-58
2023/05/11 01:04:42;;;;;;;4.33;4.03;;;10.70;99.90;;;10.58;65.13;95145.75;5035938;28;21388;-63
2023/05/11 01:07:13;;;;;;;4.33;3.93;;;10.70;99.90;;;10.59;64.78;95159.72;5037696;28;20477;-64
2023/05/11 01:09:51;;;;;;;7.13;4.70;;;10.60;99.90;;;10.59;64.57;95165.00;5035965;28;20475;-60
2023/05/11 01:12:25;;;;;;;7.30;5.03;;;10.60;99.90;;;10.59;64.72;95154.47;5038220;28;20901;-59
2023/05/11 01:15:00;;;;;;;4.50;4.10;;;10.60;99.90;;;10.59;64.57;95159.72;5037419;28;20515;-66
2023/05/11 01:17:37;;;;;;;7.70;5.20;;;10.60;99.90;;;10.57;64.65;95156.41;5030935;28;20800;-63
2023/05/11 01:20:07;;;;;;;5.53;4.37;;;10.60;99.90;;;10.55;64.37;95153.06;5037512;28;20448;-62
2023/05/11 01:22:49;;;;;;;5.17;4.73;;;10.60;99.90;;;10.54;64.82;95156.66;5035754;28;20944;-63
2023/05/11 01:25:31;;;;;;;4.90;4.30;;;10.60;99.90;;;10.53;64.35;95160.25;5032392;28;20457;-63
2023/05/11 01:28:23;;;;;;;7.20;5.17;;;10.60;99.90;;;10.51;64.34;95163.03;5034476;28;20476;-57
2023/05/11 01:30:52;;;;;;;5.57;5.10;;;10.60;99.90;;;10.49;64.84;95164.13;5031412;28;20562;-58
2023/05/11 01:33:25;;;;;;;5.57;5.07;;;10.50;99.90;;;10.49;64.63;95167.59;5034058;28;21241;-63
2023/05/11 01:35:54;;;;;;;4.80;4.37;;;10.50;99.90;;;10.49;64.45;95159.69;5035381;28;20455;-63
2023/05/11 01:38:22;;;;;;;6.67;5.47;;;10.50;99.90;;;10.48;64.39;95163.28;5038196;28;20487;-61
2023/05/11 01:40:52;;;;;;;4.70;4.40;;;10.50;99.90;;;10.48;64.42;95167.72;5037536;28;20638;-66
2023/05/11 01:43:21;;;;;;;5.00;4.60;;;10.50;99.90;;;10.47;64.42;95166.91;5036261;28;21128;-63
2023/05/11 01:45:50;;;;;;;7.00;4.57;;;10.50;99.90;;;10.46;64.33;95159.97;5032379;28;20552;-57
2023/05/11 01:48:20;;;;;;;7.03;4.60;;;10.50;99.90;;;10.45;64.16;95171.44;5038219;28;20529;-59
2023/05/11 01:50:47;;;;;;;7.70;4.33;;;10.50;99.90;;;10.45;64.26;95165.34;5029768;28;20508;-63
2023/05/11 01:53:14;;;;;;;5.37;4.93;;;10.50;99.90;;;10.44;64.17;95176.81;5037549;28;20479;-59
2023/05/11 01:55:42;;;;;;;5.00;4.30;;;10.50;99.90;;;10.44;64.36;95172.41;5032877;28;20456;-63
2023/05/11 01:58:10;;;;;;;5.43;4.93;;;10.50;99.90;;;10.45;64.47;95173.25;5031875;28;20480;-57
2023/05/11 02:00:37;;;;;;;7.80;5.97;;;10.50;99.90;;;10.43;64.21;95176.00;5037597;28;20542;-58
2023/05/11 02:03:06;;;;;;;11.10;5.70;;;10.50;99.90;;;10.42;64.58;95163.81;5033422;28;20492;-63
2023/05/11 02:05:33;;;;;;;5.83;5.30;;;10.50;99.90;;;10.39;64.32;95178.06;5033866;28;20465;-58
2023/05/11 02:08:01;;;;;;;6.00;5.40;;;10.40;99.90;;;10.40;64.55;95171.00;5034267;28;20483;-64
2023/05/11 02:10:28;;;;;;;5.77;5.27;;;10.50;99.90;;;10.41;64.45;95167.44;5034710;28;20496;-63
2023/05/11 02:12:56;;;;;;;7.63;5.17;;;10.40;99.90;;;10.43;64.63;95165.47;5035868;28;20547;-58
2023/05/11 02:15:24;;;;;;;8.80;5.30;;;10.50;99.90;;;10.44;64.42;95161.91;5032607;28;20464;-64
2023/05/11 02:17:51;;;;;;;7.90;4.97;;;10.50;99.90;;;10.45;64.21;95162.72;5034355;28;21094;-63
2023/05/11 02:20:20;;;;;;;8.63;5.10;;;10.50;99.90;;;10.46;64.33;95164.41;5034524;28;20468;-58
2023/05/11 02:22:47;;;;;;;7.53;4.70;;;10.50;99.90;;;10.45;64.21;95163.53;5033743;28;20565;-65
2023/05/11 02:25:15;;;;;;;5.60;5.10;;;10.50;99.90;;;10.45;64.12;95160.09;5031946;28;20999;-63
2023/05/11 02:27:42;;;;;;;5.53;4.87;;;10.50;99.90;;;10.45;64.06;95160.91;5035131;28;21014;-63
2023/05/11 02:30:11;;;;;;;5.23;4.83;;;10.50;99.90;;;10.45;64.07;95160.09;5035726;28;20506;-62
2023/05/11 02:32:42;;;;;;;5.63;5.13;;;10.50;99.90;;;10.46;64.11;95165.22;5036496;28;20477;-60
2023/05/11 02:35:13;;;;;;;5.70;4.50;;;10.50;99.90;;;10.46;63.89;95167.03;5034164;28;20459;-62
2023/05/11 02:37:44;;;;;;;4.60;3.97;;;10.50;99.90;;;10.45;63.83;95160.09;5034385;28;20484;-59
2023/05/11 02:40:16;;;;;;;9.00;4.23;;;10.50;99.90;;;10.45;63.71;95163.53;5033541;28;20508;-60
2023/05/11 02:42:45;;;;;;;5.40;4.90;;;10.50;99.90;;;10.43;63.78;95167.28;5035115;28;20581;-58
2023/05/11 02:45:14;;;;;;;4.63;4.27;;;10.50;99.90;;;10.42;63.89;95163.00;5030824;28;20928;-62
2023/05/11 02:47:45;;;;;;;5.53;4.77;;;10.50;99.90;;;10.40;63.74;95160.50;5037065;28;20878;-62
2023/05/11 02:50:12;;;;;;;4.10;3.70;;;10.50;99.90;;;10.39;63.68;95153.56;5031082;28;20452;-63
2023/05/11 02:52:43;;;;;;;4.20;3.90;;;10.40;99.90;;;10.36;63.62;95159.94;5035164;28;20476;-62
2023/05/11 02:55:10;;;;;;;4.50;4.10;;;10.40;99.90;;;10.34;63.89;95156.56;5037798;28;20432;-57
2023/05/11 02:57:38;;;;;;;4.80;4.40;;;10.40;99.90;;;10.33;63.77;95154.94;5033928;28;20497;-58
2023/05/11 03:00:07;;;;;;;9.93;5.47;;;10.40;99.90;;;10.31;63.83;95154.19;5037017;28;20448;-59
2023/05/11 03:02:34;;;;;;;7.60;5.33;;;10.40;99.90;;;10.28;63.57;95162.31;5034315;28;20559;-63
2023/05/11 03:05:02;;;;;;;5.07;4.67;;;10.30;99.90;;;10.26;63.38;95147.66;5036579;28;20456;-62
2023/05/11 03:07:29;;;;;;;5.13;4.70;;;10.30;99.90;;;10.22;63.57;95157.59;5032340;28;20487;-62
2023/05/11 03:09:57;;;;;;;9.20;4.53;;;10.30;99.90;;;10.20;63.61;95156.91;5033945;28;20467;-64
2023/05/11 03:12:30;;;;;;;5.37;4.87;;;10.20;99.90;;;10.15;63.67;95161.72;5034890;28;20487;-62
2023/05/11 03:14:58;;;;;;;5.80;4.60;;;10.20;99.90;;;10.12;63.82;95159.34;5031629;28;20526;-58
2023/05/11 03:17:25;;;;;;;7.53;5.30;;;10.20;99.90;;;10.10;63.67;95169.16;5031780;28;20547;-59
2023/05/11 03:19:53;;;;;;;5.77;5.27;;;10.20;99.90;;;10.06;63.80;95163.31;5027620;28;20663;-60
2023/05/11 03:22:20;;;;;;;7.00;4.50;;;10.10;99.90;;;10.02;63.81;95173.28;5036438;28;20491;-63
2023/05/11 03:24:48;;;;;;;5.10;4.70;;;10.10;99.90;;;9.99;63.90;95165.66;5032903;28;20466;-63
2023/05/11 03:27:16;;;;;;;4.83;4.30;;;10.10;99.90;;;9.96;64.04;95168.53;5032249;28;20484;-63
2023/05/11 03:29:44;;;;;;;8.03;6.13;;;10.00;99.90;;;9.94;64.18;95159.91;5033801;28;20871;-66
2023/05/11 03:32:11;;;;;;;50.47;27.30;;;10.00;99.90;;;9.89;64.22;95167.38;5030774;28;20479;-63
2023/05/11 03:34:38;;;;;;;44.07;25.03;;;10.00;99.90;;;9.90;64.27;95168.19;5034821;28;20463;-59
2023/05/11 03:37:06;;;;;;;19.40;13.23;;;10.00;99.90;;;9.91;64.44;95175.94;5034604;28;20470;-62
2023/05/11 03:39:33;;;;;;;5.70;5.20;;;10.00;99.90;;;9.93;64.26;95165.31;5032885;28;20473;-58
2023/05/11 03:42:01;;;;;;;6.60;5.40;;;10.00;99.90;;;9.91;64.47;95170.69;5035814;28;20501;-59
2023/05/11 03:44:30;;;;;;;6.60;5.17;;;10.00;99.90;;;9.93;64.56;95166.16;5029931;28;20496;-59
2023/05/11 03:46:57;;;;;;;48.00;27.07;;;10.00;99.90;;;9.94;64.34;95165.19;5034012;28;20465;-64
2023/05/11 03:49:24;;;;;;;10.30;7.70;;;10.00;99.90;;;9.97;64.57;95169.34;5036152;28;20983;-59
2023/05/11 03:51:52;;;;;;;6.47;5.97;;;10.00;99.90;;;9.99;64.64;95173.53;5026602;28;21054;-59
2023/05/11 03:54:19;;;;;;;5.70;5.30;;;10.00;99.90;;;10.00;64.19;95167.28;5031027;28;20453;-66
2023/05/11 03:56:46;;;;;;;6.10;5.50;;;10.10;99.90;;;10.02;64.26;95178.53;5033862;28;20460;-59
2023/05/11 03:59:15;;;;;;;7.50;5.83;;;10.10;99.90;;;10.01;64.46;95182.09;5039936;28;20448;-65
2023/05/11 04:01:44;;;;;;;5.80;5.30;;;10.00;99.90;;;9.98;64.62;95185.00;5036514;28;21096;-58
2023/05/11 04:04:12;;;;;;;6.97;6.27;;;10.00;99.90;;;10.00;64.50;95188.31;5032494;28;20894;-60
2023/05/11 04:06:39;;;;;;;11.80;6.93;;;10.10;99.90;;;10.01;64.67;95192.63;5035281;28;20922;-66
2023/05/11 04:09:07;;;;;;;12.60;5.70;;;10.00;99.90;;;10.03;64.92;95193.31;5039349;28;20472;-65
2023/05/11 04:11:37;;;;;;;8.40;6.47;;;10.00;99.90;;;10.04;64.90;95196.78;5039502;28;20452;-59
2023/05/11 04:14:04;;;;;;;10.50;5.80;;;10.10;99.90;;;10.07;64.91;95190.44;5031895;28;20499;-58
2023/05/11 04:16:31;;;;;;;9.93;5.67;;;10.10;99.90;;;10.10;65.10;95205.94;5038721;28;20464;-66
2023/05/11 04:19:00;;;;;;;7.80;5.90;;;10.10;99.90;;;10.08;64.61;95198.19;5038246;28;20521;-57
2023/05/11 04:21:27;;;;;;;9.80;7.20;;;10.10;99.90;;;10.06;64.80;95205.38;5038087;28;20465;-59
2023/05/11 04:23:55;;;;;;;8.47;6.70;;;10.10;99.90;;;10.03;65.00;95206.44;5036251;28;20480;-58
2023/05/11 04:26:22;;;;;;;8.90;8.07;;;10.10;99.90;;;10.06;65.19;95200.13;5037868;28;20466;-59
2023/05/11 04:28:49;;;;;;;8.50;7.27;;;10.10;99.90;;;10.08;65.25;95213.94;5036609;28;20556;-60
2023/05/11 04:31:17;;;;;;;9.53;7.10;;;10.10;99.90;;;10.07;65.17;95208.81;5039666;28;20534;-59
2023/05/11 04:33:44;;;;;;;8.90;7.13;;;10.10;99.90;;;10.05;65.19;95214.22;5033500;28;20479;-59
2023/05/11 04:36:13;;;;;;;7.70;7.10;;;10.10;99.90;;;10.04;65.34;95208.13;5031476;28;20456;-65
2023/05/11 04:38:40;;;;;;;7.80;6.73;;;10.10;99.90;;;10.02;65.34;95207.44;5042559;28;20514;-65
2023/05/11 04:41:07;;;;;;;14.73;7.50;;;10.10;99.90;;;10.02;65.40;95212.69;5038033;28;20455;-64
2023/05/11 04:43:35;;;;;;;18.20;10.53;;;10.10;99.90;;;10.03;65.53;95208.25;5034021;28;21367;-65
2023/05/11 04:46:02;;;;;;;8.63;7.00;;;10.10;99.90;;;10.05;65.46;95214.22;5037585;28;20460;-65
2023/05/11 04:48:30;;;;;;;11.40;7.60;;;10.10;99.90;;;10.06;65.72;95218.50;5034975;28;20484;-59
2023/05/11 04:50:57;;;;;;;15.67;9.30;;;10.10;99.90;;;10.07;65.75;95221.97;5029029;28;20458;-65
2023/05/11 04:53:26;;;;;;;8.70;7.90;;;10.10;99.90;;;10.08;65.97;95207.88;5038890;28;20570;-66
2023/05/11 04:55:53;;;;;;;10.77;8.47;;;10.10;99.90;;;10.08;65.76;95221.00;5037790;28;20457;-57
2023/05/11 04:58:21;;;;;;;12.97;7.80;;;10.10;99.90;;;10.05;65.71;95220.31;5041471;28;20503;-63
2023/05/11 05:00:48;;;;;;;13.10;8.77;;;10.10;99.90;;;10.05;65.55;95222.09;5037140;28;20996;-59
2023/05/11 05:03:15;;;;;;;9.63;8.73;;;10.10;99.90;;;10.06;65.93;95226.41;5038046;28;20909;-59
2023/05/11 05:05:43;;;;;;;14.20;10.43;;;10.10;99.90;;;10.04;65.84;95223.06;5034291;28;20452;-59
2023/05/11 05:08:10;;;;;;;10.83;9.27;;;10.10;99.90;;;10.05;65.99;95222.09;5032914;28;20476;-64
2023/05/11 05:10:38;;;;;;;13.83;10.27;;;10.10;99.90;;;10.08;65.89;95224.47;5037740;28;20462;-59
2023/05/11 05:13:06;;;;;;;18.10;8.80;;;10.10;99.90;;;10.08;65.78;95228.91;5037221;28;20529;-65
2023/05/11 05:15:33;;;;;;;14.57;9.43;;;10.10;99.90;;;10.09;66.02;95230.56;5037668;28;20448;-63
2023/05/11 05:18:00;;;;;;;9.90;8.90;;;10.10;99.90;;;10.09;65.95;95241.09;5038648;28;20482;-65
2023/05/11 05:20:28;;;;;;;12.47;9.97;;;10.10;99.90;;;10.08;66.08;95237.59;5038100;28;20456;-64
2023/05/11 05:22:55;;;;;;;11.53;10.07;;;10.20;99.90;;;10.07;66.11;95233.34;5039191;28;20500;-58
2023/05/11 05:25:22;;;;;;;11.80;10.37;;;10.10;99.90;;;10.07;66.19;95238.59;5036674;28;20564;-59
2023/05/11 05:27:51;;;;;;;14.17;9.70;;;10.10;99.90;;;10.08;66.07;95234.97;5036985;28;20476;-62
2023/05/11 05:30:18;;;;;;;17.90;10.67;;;10.10;99.90;;;10.09;66.02;95233.19;5038738;28;20479;-59
2023/05/11 05:32:45;;;;;;;15.50;9.40;;;10.10;99.90;;;10.08;66.49;95234.97;5035314;28;20473;-63
2023/05/11 05:35:13;;;;;;;10.67;9.50;;;10.10;99.90;;;10.09;66.23;95239.28;5039043;28;20456;-63
2023/05/11 05:37:40;;;;;;;10.87;8.70;;;10.10;99.90;;;10.12;66.24;95235.56;5037393;28;20884;-64
2023/05/11 05:40:09;;;;;;;11.40;10.30;;;10.10;99.90;;;10.11;66.29;95237.34;5036769;28;20940;-63
2023/05/11 05:42:36;;;;;;;12.70;11.00;;;10.20;99.90;;;10.11;66.37;95228.66;5038139;28;20918;-59
2023/05/11 05:45:06;;;;;;;18.80;11.10;;;10.20;99.90;;;10.16;66.29;95244.84;5039092;28;20581;-66
2023/05/11 05:47:33;;;;;;;18.57;10.83;;;10.20;99.90;;;10.16;66.06;95250.09;5032634;28;20469;-59
2023/05/11 05:50:01;;;;;;;13.10;10.30;;;10.20;99.90;;;10.18;66.25;95245.56;5037655;28;20460;-65
2023/05/11 05:52:28;;;;;;;14.70;11.10;;;10.20;99.90;;;10.20;66.16;95233.13;5037348;28;20487;-64
2023/05/11 05:54:55;;;;;;;14.43;11.57;;;10.20;99.90;;;10.22;66.09;95241.72;5030801;28;20459;-63
2023/05/11 05:57:23;;;;;;;12.10;10.80;;;10.30;99.90;;;10.26;66.13;95248.38;5038765;28;20544;-63
2023/05/11 05:59:50;;;;;;;14.13;10.87;;;10.30;99.90;;;10.27;66.03;95246.59;5036480;28;20452;-63
2023/05/11 06:02:19;;;;;;;18.00;10.53;;;10.30;99.90;;;10.29;66.20;95252.56;5035922;28;20523;-58
2023/05/11 06:04:46;;;;;;;11.90;10.10;;;10.30;99.90;;;10.30;66.19;95247.19;5037764;28;20460;-58
2023/05/11 06:07:14;;;;;;;17.73;12.23;;;10.30;99.90;;;10.32;65.72;95250.50;5036536;28;20873;-64
2023/05/11 06:09:41;;;;;;;12.93;11.10;;;10.40;99.90;;;10.33;66.06;95248.72;5037172;28;21243;-65
2023/05/11 06:12:08;;;;;;;17.10;12.50;;;10.40;99.90;;;10.33;65.96;95257.47;5038425;28;20968;-59
2023/05/11 06:14:36;;;;;;;14.70;11.00;;;10.40;99.90;;;10.36;65.92;95254.59;5035405;28;20453;-64
2023/05/11 06:17:03;;;;;;;13.17;11.27;;;10.40;99.90;;;10.38;65.77;95270.22;5037463;28;20475;-63
2023/05/11 06:19:32;;;;;;;12.23;10.27;;;10.40;99.90;;;10.36;65.90;95259.84;5035293;28;20448;-59
2023/05/11 06:21:59;;;;;;;12.37;11.07;;;10.40;99.90;;;10.36;66.02;95264.25;5037427;28;20833;-63
2023/05/11 06:24:26;;;;;;;13.07;11.77;;;10.40;99.90;;;10.38;65.84;95257.91;5037998;28;20531;-59
2023/05/11 06:26:53;;;;;;;13.23;10.80;;;10.40;99.90;;;10.42;65.90;95283.94;5034759;28;20457;-57
2023/05/11 06:29:21;;;;;;;11.60;10.40;;;10.40;99.90;;;10.40;65.80;95276.19;5037392;28;20461;-63
2023/05/11 06:31:51;;;;;;;13.13;11.03;;;10.40;99.90;;;10.39;65.81;95275.38;5037385;28;20456;-58
2023/05/11 06:34:19;;;;;;;15.10;11.40;;;10.50;99.90;;;10.40;65.94;95277.00;5034533;28;20448;-65
2023/05/11 06:36:50;;;;;;;12.40;10.93;;;10.50;99.90;;;10.43;66.11;95277.75;5036623;28;20487;-63
2023/05/11 06:39:17;;;;;;;12.93;9.47;;;10.50;99.90;;;10.48;65.98;95275.53;5034834;28;20465;-64
2023/05/11 06:41:45;;;;;;;12.20;10.80;;;10.50;99.90;;;10.48;65.71;95270.28;5037517;28;20461;-60
2023/05/11 06:44:12;;;;;;;14.40;10.50;;;10.50;99.90;;;10.48;65.91;95273.75;5038322;28;20510;-59
2023/05/11 06:46:39;;;;;;;17.47;11.27;;;10.50;99.90;;;10.46;65.88;95286.19;5032595;28;20452;-59
2023/05/11 06:49:08;;;;;;;13.33;10.23;;;10.50;99.90;;;10.45;65.66;95267.91;5037101;28;20482;-59
2023/05/11 06:51:35;;;;;;;12.60;10.60;;;10.50;99.90;;;10.46;65.88;95277.47;5036969;28;20484;-58
2023/05/11 06:54:04;;;;;;;12.43;11.10;;;10.50;99.90;;;10.51;65.72;95273.47;5034917;28;20788;-59
2023/05/11 06:56:32;;;;;;;14.40;11.23;;;10.50;99.90;;;10.53;65.91;95275.97;5033144;28;20904;-59
2023/05/11 06:59:00;;;;;;;15.80;11.10;;;10.60;99.90;;;10.59;65.67;95264.94;5036258;28;20479;-59
2023/05/11 07:01:27;;;;;;;13.23;11.03;;;10.60;99.90;;;10.67;65.66;95265.13;5036015;28;20534;-59
2023/05/11 07:03:55;;;;;;;12.33;10.90;;;10.70;99.90;;;10.75;65.61;95262.69;5031882;28;20499;-57
2023/05/11 07:06:22;;;;;;;12.33;10.67;;;10.70;99.90;;;10.82;65.36;95272.69;5035798;28;20460;-65
2023/05/11 07:08:49;;;;;;;16.03;10.40;;;10.80;99.90;;;10.88;64.91;95264.25;5036773;28;20483;-64
2023/05/11 07:11:18;;;;;;;11.60;9.33;;;10.90;99.90;;;10.93;64.95;95273.41;5035939;28;20460;-59
2023/05/11 07:13:45;;;;;;;10.70;9.40;;;10.90;99.90;;;10.99;64.71;95287.03;5038756;28;20556;-64
2023/05/11 07:16:12;;;;;;;10.03;8.50;;;10.90;99.90;;;11.01;64.53;95275.38;5030450;28;20448;-59
2023/05/11 07:18:40;;;;;;;15.07;9.23;;;11.00;99.90;;;11.05;64.53;95279.44;5036056;28;20583;-58
2023/05/11 07:21:07;;;;;;;12.63;11.10;;;11.10;99.90;;;11.11;64.43;95270.16;5036780;28;20449;-57
2023/05/11 07:23:34;;;;;;;19.07;9.80;;;11.10;99.90;;;11.19;64.15;95291.38;5034496;28;20491;-64
2023/05/11 07:26:07;;;;;;;13.00;9.10;;;11.20;99.90;;;11.27;63.83;95269.66;5035145;28;20460;-65
2023/05/11 07:28:36;;;;;;;19.93;10.20;;;11.20;99.90;;;11.35;63.88;95269.81;5028974;28;20503;-59
2023/05/11 07:31:03;;;;;;;10.03;9.03;;;11.40;99.90;;;11.48;63.71;95280.94;5033930;28;20464;-64
2023/05/11 07:33:32;;;;;;;11.83;9.93;;;11.50;99.90;;;11.61;63.05;95274.59;5039885;28;20476;-59
2023/05/11 07:35:59;;;;;;;15.47;9.07;;;11.60;99.90;;;11.76;63.16;95275.03;5041481;28;20477;-64
2023/05/11 07:38:26;;;;;;;10.17;8.60;;;11.70;99.90;;;11.89;63.13;95285.31;5037426;28;20488;-64
2023/05/11 07:40:53;;;;;;;10.53;8.10;;;11.80;99.90;;;12.01;62.15;95295.59;5041434;28;20444;-59
2023/05/11 07:43:21;;;;;;;8.77;7.87;;;12.00;99.90;;;12.07;61.99;95277.56;5040361;28;20499;-59
2023/05/11 07:45:49;;;;;;;11.13;8.70;;;12.00;99.90;;;12.12;62.02;95285.91;5038389;28;20449;-64
2023/05/11 07:48:17;;;;;;;8.80;8.00;;;12.10;99.90;;;12.13;62.02;95285.78;5040718;28;20498;-57
2023/05/11 07:50:44;;;;;;;11.10;7.47;;;12.10;99.90;;;12.18;61.45;95280.91;5035418;28;20452;-63
2023/05/11 07:53:11;;;;;;;9.10;6.43;;;12.20;99.90;;;12.23;61.60;95283.13;5040367;28;21050;-59
2023/05/11 07:55:38;;;;;;;7.03;6.33;;;12.20;99.90;;;12.28;61.08;95286.16;5037139;28;20506;-58
2023/05/11 07:58:06;;;;;;;7.30;6.60;;;12.30;99.80;;;12.36;60.99;95282.81;5042363;28;20472;-60
2023/05/11 08:00:34;;;;;;;9.73;7.73;;;12.30;99.50;;;12.38;60.54;95292.28;5039218;28;20459;-58
2023/05/11 08:03:02;;;;;;;8.90;6.60;;;12.40;99.20;;;12.38;59.99;95297.53;5037287;28;21041;-58
2023/05/11 08:05:31;;;;;;;7.17;6.50;;;12.40;98.90;;;12.38;60.15;95280.91;5038769;28;20463;-64
2023/05/11 08:07:59;;;;;;;8.80;7.27;;;12.40;98.80;;;12.41;60.12;95285.03;5039542;28;20472;-64
2023/05/11 08:10:26;;;;;;;8.10;7.30;;;12.40;98.70;;;12.45;60.08;95292.53;5039198;28;20460;-63
2023/05/11 08:12:53;;;;;;;7.43;6.37;;;12.40;98.70;;;12.47;59.65;95281.84;5039772;28;20472;-62
2023/05/11 08:15:20;;;;;;;9.70;7.30;;;12.50;98.50;;;12.52;59.46;95288.38;5038406;28;20525;-63
2023/05/11 08:17:48;;;;;;;9.23;6.43;;;12.50;98.30;;;12.58;59.84;95292.25;5039158;28;20468;-63
2023/05/11 08:20:17;;;;;;;6.77;6.20;;;12.50;98.30;;;12.63;59.20;95290.00;5040867;28;20459;-58
2023/05/11 08:22:45;;;;;;;9.33;6.40;;;12.60;98.00;;;12.63;58.96;95289.19;5037781;28;20467;-64
2023/05/11 08:25:12;;;;;;;8.70;7.40;;;12.60;97.90;;;12.66;59.26;95281.81;5038625;28;20567;-63
2023/05/11 08:27:39;;;;;;;11.47;6.70;;;12.70;98.00;;;12.74;59.24;95284.56;5038563;28;20499;-65
2023/05/11 08:30:08;;;;;;;8.87;6.17;;;12.70;98.00;;;12.85;58.51;95274.81;5037926;28;20457;-60
2023/05/11 08:32:36;;;;;;;9.87;6.03;;;12.80;97.60;;;12.93;58.52;95274.09;5032833;28;20483;-64
2023/05/11 08:35:04;;;;;;;7.10;6.40;;;12.90;97.60;;;13.01;58.78;95271.56;5037095;28;20466;-65
2023/05/11 08:37:33;;;;;;;7.27;6.07;;;13.00;97.60;;;13.05;57.97;95283.50;5039384;28;20858;-66
2023/05/11 08:40:00;;;;;;;13.03;6.67;;;13.00;97.20;;;13.04;57.79;95279.19;5039652;28;20476;-58
2023/05/11 08:42:28;;;;;;;8.97;6.67;;;13.00;96.80;;;13.05;57.88;95283.50;5036150;28;20468;-64
2023/05/11 08:44:57;;;;;;;6.37;5.87;;;13.00;96.80;;;13.05;57.42;95291.44;5041582;28;20494;-64
2023/05/11 08:47:24;;;;;;;8.53;6.47;;;13.00;96.40;;;13.02;57.84;95284.63;5037227;28;20495;-64
2023/05/11 08:49:52;;;;;;;5.60;5.10;;;13.00;96.60;;;12.98;57.26;95285.06;5033654;28;20539;-59
2023/05/11 08:52:20;;;;;;;11.03;6.73;;;13.00;96.50;;;12.97;57.36;95296.59;5039836;28;20464;-58
2023/05/11 08:54:49;;;;;;;6.77;6.17;;;13.00;96.30;;;12.97;57.22;95281.59;5038028;28;20455;-58
2023/05/11 08:57:16;;;;;;;7.10;5.80;;;12.90;96.30;;;13.00;57.59;95273.38;5037561;28;20484;-64
2023/05/11 08:59:44;;;;;;;6.43;5.83;;;13.00;96.40;;;13.06;57.47;95269.34;5038837;28;21057;-65
2023/05/11 09:02:16;;;;;;;5.73;5.27;;;13.00;96.50;;;13.16;57.45;95290.41;5037134;28;20550;-60
2023/05/11 09:04:43;;;;;;;5.27;4.83;;;13.10;96.50;;;13.22;57.24;95274.00;5039803;28;21019;-59
2023/05/11 09:07:11;;;;;;;9.30;5.60;;;13.10;96.20;;;13.24;56.88;95267.56;5038539;28;21020;-64
2023/05/11 09:09:40;;;;;;;5.23;4.73;;;13.20;96.00;;;13.26;56.90;95262.97;5039893;28;20452;-64
2023/05/11 09:12:10;;;;;;;6.40;5.27;;;13.20;96.00;;;13.33;57.44;95263.25;5041535;28;20459;-60
2023/05/11 09:14:37;;;;;;;9.80;4.80;;;13.30;96.10;;;13.38;57.03;95263.63;5038093;28;20461;-59
2023/05/11 09:17:05;;;;;;;7.23;5.50;;;13.30;96.10;;;13.43;56.85;95249.97;5039205;28;20451;-61
2023/05/11 09:19:32;;;;;;;12.10;4.63;;;13.40;96.00;;;13.52;57.06;95254.38;5040415;28;20484;-64
2023/05/11 09:22:00;;;;;;;5.10;4.70;;;13.50;96.10;;;13.58;56.21;95258.25;5040341;28;20460;-64
2023/05/11 09:24:27;;;;;;;7.87;5.20;;;13.50;95.80;;;13.66;56.51;95266.25;5037180;28;20495;-64
2023/05/11 09:27:07;;;;;;;7.47;5.20;;;13.60;95.80;;;13.71;56.25;95260.50;5037980;28;20535;-58
2023/05/11 09:29:36;;;;;;;5.00;4.50;;;13.60;95.60;;;13.75;56.75;95270.66;5035922;28;20452;-59
2023/05/11 09:32:04;;;;;;;6.07;5.03;;;13.70;95.60;;;13.78;56.46;95262.41;5039510;28;20447;-63
2023/05/11 09:34:32;;;;;;;8.83;4.67;;;13.70;95.40;;;13.81;56.32;95264.75;5037657;28;20449;-59
2023/05/11 09:36:59;;;;;;;6.77;3.80;;;13.80;95.40;;;13.78;55.91;95264.22;5037792;28;20535;-59
2023/05/11 09:39:29;;;;;;;5.17;4.77;;;13.80;95.10;;;13.74;56.07;95273.44;5032696;28;20461;-64
2023/05/11 09:42:13;;;;;;;4.50;4.10;;;13.70;95.20;;;13.76;55.89;95266.22;5040299;28;20527;-64
2023/05/11 09:44:42;;;;;;;4.90;4.50;;;13.70;95.20;;;13.80;56.26;95256.97;5036126;28;21070;-64
2023/05/11 09:47:13;;;;;;;5.87;5.30;;;13.70;95.40;;;13.85;56.34;95254.72;5037976;28;21296;-60
2023/05/11 09:49:42;;;;;;;7.20;5.40;;;13.80;95.40;;;13.88;56.10;95259.72;5037338;28;20510;-62
2023/05/11 09:52:11;;;;;;;5.30;4.00;;;13.80;95.20;;;13.89;56.04;95265.84;5032534;28;20477;-65
2023/05/11 09:54:45;;;;;;;4.83;4.43;;;13.90;95.20;;;13.90;55.95;95259.56;5036928;28;21002;-64
2023/05/11 09:57:26;;;;;;;5.53;5.00;;;13.80;95.20;;;13.86;56.05;95251.09;5035460;28;20996;-66
2023/05/11 09:59:56;;;;;;;4.63;4.33;;;13.90;95.00;;;13.81;55.93;95253.34;5036306;28;21030;-63
2023/05/11 10:02:25;;;;;;;6.83;3.90;;;13.80;95.00;;;13.77;56.19;95259.91;5032267;28;20486;-61
2023/05/11 10:04:53;;;;;;;6.80;4.37;;;13.80;95.10;;;13.69;56.30;95244.81;5032164;28;20500;-59
2023/05/11 10:07:27;;;;;;;5.50;4.57;;;13.70;95.00;;;13.66;56.39;95246.94;5036753;28;20584;-58
2023/05/11 10:09:55;;;;;;;5.07;4.67;;;13.70;95.30;;;13.70;56.46;95237.72;5030645;28;20607;-64
2023/05/11 10:12:24;;;;;;;7.33;5.33;;;13.70;95.40;;;13.74;56.80;95228.50;5036886;28;21461;-59
2023/05/11 10:14:55;;;;;;;5.70;4.40;;;13.70;95.40;;;13.77;56.71;95231.69;5039315;28;20461;-64
2023/05/11 10:17:22;;;;;;;14.13;5.20;;;13.70;95.40;;;13.80;56.66;95234.03;5039988;28;20472;-64
2023/05/11 10:19:50;;;;;;;5.03;4.60;;;13.80;95.40;;;13.87;56.35;95230.78;5037495;28;20461;-64